sensor_id;sensor_type;location;lat;lon;timestamp;P1;durP1;ratioP1;P2;durP2;ratioP2
44068;SDS011;29738;51.234;5.484;2022-08-21T00:02:13;25.52;;;12.45;;
44068;SDS011;29738;51.234;5.484;2022-08-21T00:04:40;27.77;;;12.20;;
44068;SDS011;29738;51.234;5.484;2022-08-21T00:07:06;23.65;;;12.63;;
44068;SDS011;29738;51.234;5.484;2022-08-21T00:09:32;22.70;;;11.90;;
44068;SDS011;29738;51.234;5.484;2022-08-21T00:11:58;20.08;;;11.95;;
44068;SDS011;29738;51.234;5.484;2022-08-21T00:14:24;24.08;;;12.50;;
44068;SDS011;29738;51.234;5.484;2022-08-21T00:16:49;21.35;;;13.32;;
44068;SDS011;29738;51.234;5.484;2022-08-21T00:19:15;21.85;;;12.85;;
44068;SDS011;29738;51.234;5.484;2022-08-21T00:21:41;24.25;;;13.68;;
44068;SDS011;29738;51.234;5.484;2022-08-21T00:24:07;23.25;;;13.82;;
44068;SDS011;29738;51.234;5.484;2022-08-21T00:26:33;26.38;;;15.30;;
44068;SDS011;29738;51.234;5.484;2022-08-21T00:28:59;21.52;;;11.30;;
44068;SDS011;29738;51.234;5.484;2022-08-21T00:31:25;22.08;;;13.30;;
44068;SDS011;29738;51.234;5.484;2022-08-21T00:33:51;23.60;;;13.70;;
44068;SDS011;29738;51.234;5.484;2022-08-21T00:36:17;25.27;;;12.98;;
44068;SDS011;29738;51.234;5.484;2022-08-21T00:38:43;22.70;;;12.35;;
44068;SDS011;29738;51.234;5.484;2022-08-21T00:41:09;25.13;;;13.48;;
44068;SDS011;29738;51.234;5.484;2022-08-21T00:43:36;28.35;;;14.30;;
44068;SDS011;29738;51.234;5.484;2022-08-21T00:46:04;22.00;;;12.73;;
44068;SDS011;29738;51.234;5.484;2022-08-21T00:48:31;24.63;;;12.15;;
44068;SDS011;29738;51.234;5.484;2022-08-21T00:50:59;22.17;;;13.15;;
44068;SDS011;29738;51.234;5.484;2022-08-21T00:53:34;20.20;;;12.45;;
44068;SDS011;29738;51.234;5.484;2022-08-21T00:56:03;21.70;;;13.10;;
44068;SDS011;29738;51.234;5.484;2022-08-21T00:58:31;21.80;;;13.18;;
44068;SDS011;29738;51.234;5.484;2022-08-21T01:01:01;26.95;;;13.15;;
44068;SDS011;29738;51.234;5.484;2022-08-21T01:03:29;23.83;;;13.27;;
44068;SDS011;29738;51.234;5.484;2022-08-21T01:05:55;21.52;;;12.40;;
44068;SDS011;29738;51.234;5.484;2022-08-21T01:08:21;23.95;;;12.90;;
44068;SDS011;29738;51.234;5.484;2022-08-21T01:10:48;23.33;;;13.02;;
44068;SDS011;29738;51.234;5.484;2022-08-21T01:13:15;25.10;;;13.35;;
44068;SDS011;29738;51.234;5.484;2022-08-21T01:15:43;25.17;;;13.32;;
44068;SDS011;29738;51.234;5.484;2022-08-21T01:18:12;23.52;;;13.02;;
44068;SDS011;29738;51.234;5.484;2022-08-21T01:20:42;26.55;;;14.25;;
44068;SDS011;29738;51.234;5.484;2022-08-21T01:23:10;25.40;;;13.20;;
44068;SDS011;29738;51.234;5.484;2022-08-21T01:25:37;26.67;;;13.77;;
44068;SDS011;29738;51.234;5.484;2022-08-21T01:28:07;27.15;;;14.30;;
44068;SDS011;29738;51.234;5.484;2022-08-21T01:30:37;25.08;;;13.23;;
44068;SDS011;29738;51.234;5.484;2022-08-21T01:33:04;24.00;;;13.00;;
44068;SDS011;29738;51.234;5.484;2022-08-21T01:35:29;24.10;;;13.02;;
44068;SDS011;29738;51.234;5.484;2022-08-21T01:37:55;23.38;;;12.82;;
44068;SDS011;29738;51.234;5.484;2022-08-21T01:40:21;24.67;;;12.27;;
44068;SDS011;29738;51.234;5.484;2022-08-21T01:42:47;26.30;;;13.60;;
44068;SDS011;29738;51.234;5.484;2022-08-21T01:45:13;23.23;;;13.07;;
44068;SDS011;29738;51.234;5.484;2022-08-21T01:47:41;21.67;;;12.52;;
44068;SDS011;29738;51.234;5.484;2022-08-21T01:50:09;23.83;;;13.27;;
44068;SDS011;29738;51.234;5.484;2022-08-21T01:52:40;24.77;;;13.82;;
44068;SDS011;29738;51.234;5.484;2022-08-21T01:55:07;22.15;;;12.50;;
44068;SDS011;29738;51.234;5.484;2022-08-21T01:57:33;26.52;;;13.93;;
44068;SDS011;29738;51.234;5.484;2022-08-21T01:59:59;26.60;;;14.73;;
44068;SDS011;29738;51.234;5.484;2022-08-21T02:02:26;26.80;;;14.27;;
44068;SDS011;29738;51.234;5.484;2022-08-21T02:04:51;26.42;;;14.32;;
44068;SDS011;29738;51.234;5.484;2022-08-21T02:07:17;32.35;;;14.63;;
44068;SDS011;29738;51.234;5.484;2022-08-21T02:09:43;26.75;;;14.32;;
44068;SDS011;29738;51.234;5.484;2022-08-21T02:12:10;26.27;;;14.13;;
44068;SDS011;29738;51.234;5.484;2022-08-21T02:14:37;25.10;;;13.25;;
44068;SDS011;29738;51.234;5.484;2022-08-21T02:17:03;25.92;;;13.30;;
44068;SDS011;29738;51.234;5.484;2022-08-21T02:19:29;27.73;;;14.15;;
44068;SDS011;29738;51.234;5.484;2022-08-21T02:21:55;25.33;;;13.68;;
44068;SDS011;29738;51.234;5.484;2022-08-21T02:24:20;24.42;;;13.48;;
44068;SDS011;29738;51.234;5.484;2022-08-21T02:26:46;28.08;;;14.35;;
44068;SDS011;29738;51.234;5.484;2022-08-21T02:29:12;26.27;;;14.93;;
44068;SDS011;29738;51.234;5.484;2022-08-21T02:31:38;28.90;;;16.00;;
44068;SDS011;29738;51.234;5.484;2022-08-21T02:34:04;25.88;;;14.32;;
44068;SDS011;29738;51.234;5.484;2022-08-21T02:36:30;29.50;;;15.75;;
44068;SDS011;29738;51.234;5.484;2022-08-21T02:38:56;27.20;;;15.70;;
44068;SDS011;29738;51.234;5.484;2022-08-21T02:41:22;29.25;;;15.35;;
44068;SDS011;29738;51.234;5.484;2022-08-21T02:43:48;28.88;;;14.35;;
44068;SDS011;29738;51.234;5.484;2022-08-21T02:46:15;26.67;;;15.05;;
44068;SDS011;29738;51.234;5.484;2022-08-21T02:48:44;30.08;;;15.93;;
44068;SDS011;29738;51.234;5.484;2022-08-21T02:51:12;28.27;;;15.88;;
44068;SDS011;29738;51.234;5.484;2022-08-21T02:53:41;34.65;;;14.73;;
44068;SDS011;29738;51.234;5.484;2022-08-21T02:56:09;31.90;;;16.00;;
44068;SDS011;29738;51.234;5.484;2022-08-21T02:58:42;31.27;;;14.90;;
44068;SDS011;29738;51.234;5.484;2022-08-21T03:01:12;25.55;;;14.35;;
44068;SDS011;29738;51.234;5.484;2022-08-21T03:03:39;32.25;;;14.63;;
44068;SDS011;29738;51.234;5.484;2022-08-21T03:06:07;27.20;;;13.88;;
44068;SDS011;29738;51.234;5.484;2022-08-21T03:08:34;24.58;;;13.65;;
44068;SDS011;29738;51.234;5.484;2022-08-21T03:11:00;23.50;;;13.15;;
44068;SDS011;29738;51.234;5.484;2022-08-21T03:13:27;21.77;;;12.50;;
44068;SDS011;29738;51.234;5.484;2022-08-21T03:15:53;24.08;;;12.50;;
44068;SDS011;29738;51.234;5.484;2022-08-21T03:18:20;26.38;;;12.00;;
44068;SDS011;29738;51.234;5.484;2022-08-21T03:20:46;22.35;;;11.95;;
44068;SDS011;29738;51.234;5.484;2022-08-21T03:23:13;27.77;;;13.02;;
44068;SDS011;29738;51.234;5.484;2022-08-21T03:25:39;22.95;;;11.93;;
44068;SDS011;29738;51.234;5.484;2022-08-21T03:28:07;20.02;;;11.30;;
44068;SDS011;29738;51.234;5.484;2022-08-21T03:30:36;21.65;;;11.68;;
44068;SDS011;29738;51.234;5.484;2022-08-21T03:33:01;25.88;;;11.40;;
44068;SDS011;29738;51.234;5.484;2022-08-21T03:35:28;21.27;;;11.45;;
44068;SDS011;29738;51.234;5.484;2022-08-21T03:37:54;25.52;;;11.57;;
44068;SDS011;29738;51.234;5.484;2022-08-21T03:40:20;24.33;;;11.82;;
44068;SDS011;29738;51.234;5.484;2022-08-21T03:42:49;25.20;;;12.00;;
44068;SDS011;29738;51.234;5.484;2022-08-21T03:45:15;25.90;;;12.40;;
44068;SDS011;29738;51.234;5.484;2022-08-21T03:47:57;20.73;;;10.95;;
44068;SDS011;29738;51.234;5.484;2022-08-21T03:50:25;24.80;;;11.45;;
44068;SDS011;29738;51.234;5.484;2022-08-21T03:52:54;30.02;;;11.95;;
44068;SDS011;29738;51.234;5.484;2022-08-21T03:55:20;26.20;;;11.50;;
44068;SDS011;29738;51.234;5.484;2022-08-21T03:57:47;22.95;;;10.80;;
44068;SDS011;29738;51.234;5.484;2022-08-21T04:00:14;26.80;;;12.05;;
44068;SDS011;29738;51.234;5.484;2022-08-21T04:02:41;29.30;;;13.13;;
44068;SDS011;29738;51.234;5.484;2022-08-21T04:05:09;25.33;;;9.82;;
44068;SDS011;29738;51.234;5.484;2022-08-21T04:07:35;24.92;;;11.63;;
44068;SDS011;29738;51.234;5.484;2022-08-21T04:10:01;21.50;;;10.13;;
44068;SDS011;29738;51.234;5.484;2022-08-21T04:12:28;27.20;;;11.82;;
44068;SDS011;29738;51.234;5.484;2022-08-21T04:14:55;20.63;;;10.90;;
44068;SDS011;29738;51.234;5.484;2022-08-21T04:17:21;19.98;;;10.05;;
44068;SDS011;29738;51.234;5.484;2022-08-21T04:19:46;20.92;;;10.25;;
44068;SDS011;29738;51.234;5.484;2022-08-21T04:22:12;22.50;;;9.82;;
44068;SDS011;29738;51.234;5.484;2022-08-21T04:24:38;18.27;;;9.80;;
44068;SDS011;29738;51.234;5.484;2022-08-21T04:27:04;22.30;;;10.30;;
44068;SDS011;29738;51.234;5.484;2022-08-21T04:29:29;26.10;;;11.32;;
44068;SDS011;29738;51.234;5.484;2022-08-21T04:31:55;24.15;;;12.48;;
44068;SDS011;29738;51.234;5.484;2022-08-21T04:34:21;25.30;;;12.00;;
44068;SDS011;29738;51.234;5.484;2022-08-21T04:36:47;26.80;;;12.15;;
44068;SDS011;29738;51.234;5.484;2022-08-21T04:39:12;23.92;;;12.18;;
44068;SDS011;29738;51.234;5.484;2022-08-21T04:41:38;26.77;;;12.15;;
44068;SDS011;29738;51.234;5.484;2022-08-21T04:44:04;23.88;;;11.90;;
44068;SDS011;29738;51.234;5.484;2022-08-21T04:46:31;27.00;;;12.10;;
44068;SDS011;29738;51.234;5.484;2022-08-21T04:48:57;25.27;;;11.20;;
44068;SDS011;29738;51.234;5.484;2022-08-21T04:51:32;22.50;;;10.82;;
44068;SDS011;29738;51.234;5.484;2022-08-21T04:54:02;24.25;;;9.57;;
44068;SDS011;29738;51.234;5.484;2022-08-21T04:56:37;20.48;;;9.02;;
44068;SDS011;29738;51.234;5.484;2022-08-21T04:59:10;22.30;;;9.38;;
44068;SDS011;29738;51.234;5.484;2022-08-21T05:01:44;25.42;;;9.43;;
44068;SDS011;29738;51.234;5.484;2022-08-21T05:04:12;28.83;;;9.73;;
44068;SDS011;29738;51.234;5.484;2022-08-21T05:06:40;23.85;;;8.95;;
44068;SDS011;29738;51.234;5.484;2022-08-21T05:09:09;21.48;;;8.93;;
44068;SDS011;29738;51.234;5.484;2022-08-21T05:11:39;20.25;;;8.38;;
44068;SDS011;29738;51.234;5.484;2022-08-21T05:14:07;18.10;;;8.40;;
44068;SDS011;29738;51.234;5.484;2022-08-21T05:16:34;20.98;;;8.90;;
44068;SDS011;29738;51.234;5.484;2022-08-21T05:19:00;22.88;;;8.93;;
44068;SDS011;29738;51.234;5.484;2022-08-21T05:21:26;19.70;;;8.48;;
44068;SDS011;29738;51.234;5.484;2022-08-21T05:23:52;26.88;;;8.90;;
44068;SDS011;29738;51.234;5.484;2022-08-21T05:26:18;16.88;;;8.38;;
44068;SDS011;29738;51.234;5.484;2022-08-21T05:28:43;20.55;;;8.70;;
44068;SDS011;29738;51.234;5.484;2022-08-21T05:31:10;18.58;;;8.45;;
44068;SDS011;29738;51.234;5.484;2022-08-21T05:33:35;19.42;;;8.20;;
44068;SDS011;29738;51.234;5.484;2022-08-21T05:36:01;19.63;;;8.32;;
44068;SDS011;29738;51.234;5.484;2022-08-21T05:38:27;20.67;;;8.35;;
44068;SDS011;29738;51.234;5.484;2022-08-21T05:40:53;18.05;;;8.10;;
44068;SDS011;29738;51.234;5.484;2022-08-21T05:43:19;18.65;;;7.80;;
44068;SDS011;29738;51.234;5.484;2022-08-21T05:45:46;18.38;;;7.60;;
44068;SDS011;29738;51.234;5.484;2022-08-21T05:48:19;23.63;;;8.10;;
44068;SDS011;29738;51.234;5.484;2022-08-21T05:50:47;17.95;;;7.53;;
44068;SDS011;29738;51.234;5.484;2022-08-21T05:53:15;23.15;;;9.38;;
44068;SDS011;29738;51.234;5.484;2022-08-21T05:55:43;19.55;;;7.63;;
44068;SDS011;29738;51.234;5.484;2022-08-21T05:58:09;23.92;;;7.85;;
44068;SDS011;29738;51.234;5.484;2022-08-21T06:00:36;20.00;;;8.68;;
44068;SDS011;29738;51.234;5.484;2022-08-21T06:03:02;19.27;;;8.10;;
44068;SDS011;29738;51.234;5.484;2022-08-21T06:05:28;19.85;;;7.97;;
44068;SDS011;29738;51.234;5.484;2022-08-21T06:07:54;19.60;;;7.57;;
44068;SDS011;29738;51.234;5.484;2022-08-21T06:10:20;17.02;;;8.13;;
44068;SDS011;29738;51.234;5.484;2022-08-21T06:12:45;23.50;;;9.38;;
44068;SDS011;29738;51.234;5.484;2022-08-21T06:15:11;18.88;;;7.20;;
44068;SDS011;29738;51.234;5.484;2022-08-21T06:17:37;17.83;;;7.55;;
44068;SDS011;29738;51.234;5.484;2022-08-21T06:20:03;21.42;;;7.30;;
44068;SDS011;29738;51.234;5.484;2022-08-21T06:22:29;17.05;;;7.28;;
44068;SDS011;29738;51.234;5.484;2022-08-21T06:24:55;18.17;;;6.45;;
44068;SDS011;29738;51.234;5.484;2022-08-21T06:27:23;18.15;;;7.25;;
44068;SDS011;29738;51.234;5.484;2022-08-21T06:29:49;14.88;;;6.75;;
44068;SDS011;29738;51.234;5.484;2022-08-21T06:32:14;16.33;;;6.22;;
44068;SDS011;29738;51.234;5.484;2022-08-21T06:34:40;22.30;;;7.63;;
44068;SDS011;29738;51.234;5.484;2022-08-21T06:37:07;18.00;;;7.45;;
44068;SDS011;29738;51.234;5.484;2022-08-21T06:39:33;17.77;;;7.30;;
44068;SDS011;29738;51.234;5.484;2022-08-21T06:41:59;15.52;;;6.68;;
44068;SDS011;29738;51.234;5.484;2022-08-21T06:44:25;18.30;;;6.10;;
44068;SDS011;29738;51.234;5.484;2022-08-21T06:46:51;19.80;;;6.45;;
44068;SDS011;29738;51.234;5.484;2022-08-21T06:49:17;12.55;;;5.32;;
44068;SDS011;29738;51.234;5.484;2022-08-21T06:51:43;12.85;;;4.95;;
44068;SDS011;29738;51.234;5.484;2022-08-21T06:54:09;16.52;;;4.90;;
44068;SDS011;29738;51.234;5.484;2022-08-21T06:56:35;12.00;;;4.78;;
44068;SDS011;29738;51.234;5.484;2022-08-21T06:59:03;10.77;;;4.25;;
44068;SDS011;29738;51.234;5.484;2022-08-21T07:01:30;12.40;;;3.92;;
44068;SDS011;29738;51.234;5.484;2022-08-21T07:03:56;12.68;;;4.00;;
44068;SDS011;29738;51.234;5.484;2022-08-21T07:06:23;16.42;;;4.68;;
44068;SDS011;29738;51.234;5.484;2022-08-21T07:08:49;21.45;;;4.60;;
44068;SDS011;29738;51.234;5.484;2022-08-21T07:11:20;12.60;;;4.22;;
44068;SDS011;29738;51.234;5.484;2022-08-21T07:13:47;13.68;;;4.13;;
44068;SDS011;29738;51.234;5.484;2022-08-21T07:16:14;11.02;;;4.65;;
44068;SDS011;29738;51.234;5.484;2022-08-21T07:18:40;11.98;;;4.47;;
44068;SDS011;29738;51.234;5.484;2022-08-21T07:21:06;12.52;;;4.25;;
44068;SDS011;29738;51.234;5.484;2022-08-21T07:23:34;12.23;;;3.70;;
44068;SDS011;29738;51.234;5.484;2022-08-21T07:26:02;20.52;;;5.50;;
44068;SDS011;29738;51.234;5.484;2022-08-21T07:28:29;20.02;;;5.35;;
44068;SDS011;29738;51.234;5.484;2022-08-21T07:30:56;22.05;;;5.80;;
44068;SDS011;29738;51.234;5.484;2022-08-21T07:33:24;15.48;;;5.30;;
44068;SDS011;29738;51.234;5.484;2022-08-21T07:35:51;14.50;;;5.03;;
44068;SDS011;29738;51.234;5.484;2022-08-21T07:38:17;16.05;;;4.70;;
44068;SDS011;29738;51.234;5.484;2022-08-21T07:40:44;19.83;;;5.78;;
44068;SDS011;29738;51.234;5.484;2022-08-21T07:43:11;15.43;;;5.32;;
44068;SDS011;29738;51.234;5.484;2022-08-21T07:45:37;12.45;;;4.28;;
44068;SDS011;29738;51.234;5.484;2022-08-21T07:48:03;15.95;;;5.10;;
44068;SDS011;29738;51.234;5.484;2022-08-21T07:50:30;17.95;;;5.05;;
44068;SDS011;29738;51.234;5.484;2022-08-21T07:52:55;14.52;;;5.57;;
44068;SDS011;29738;51.234;5.484;2022-08-21T07:55:22;14.82;;;5.78;;
44068;SDS011;29738;51.234;5.484;2022-08-21T07:57:48;19.10;;;5.20;;
44068;SDS011;29738;51.234;5.484;2022-08-21T08:00:16;18.67;;;5.85;;
44068;SDS011;29738;51.234;5.484;2022-08-21T08:02:45;16.65;;;5.18;;
44068;SDS011;29738;51.234;5.484;2022-08-21T08:05:14;14.20;;;4.43;;
44068;SDS011;29738;51.234;5.484;2022-08-21T08:07:41;12.10;;;4.20;;
44068;SDS011;29738;51.234;5.484;2022-08-21T08:10:07;18.92;;;5.55;;
44068;SDS011;29738;51.234;5.484;2022-08-21T08:12:37;12.00;;;5.15;;
44068;SDS011;29738;51.234;5.484;2022-08-21T08:15:05;14.10;;;4.50;;
44068;SDS011;29738;51.234;5.484;2022-08-21T08:17:32;12.23;;;3.88;;
44068;SDS011;29738;51.234;5.484;2022-08-21T08:19:58;12.38;;;4.40;;
44068;SDS011;29738;51.234;5.484;2022-08-21T08:22:27;10.35;;;3.92;;
44068;SDS011;29738;51.234;5.484;2022-08-21T08:24:53;13.13;;;4.45;;
44068;SDS011;29738;51.234;5.484;2022-08-21T08:27:20;13.07;;;4.13;;
44068;SDS011;29738;51.234;5.484;2022-08-21T08:29:46;14.02;;;4.25;;
44068;SDS011;29738;51.234;5.484;2022-08-21T08:32:12;14.40;;;3.50;;
44068;SDS011;29738;51.234;5.484;2022-08-21T08:34:38;11.10;;;3.85;;
44068;SDS011;29738;51.234;5.484;2022-08-21T08:37:05;15.80;;;3.38;;
44068;SDS011;29738;51.234;5.484;2022-08-21T08:39:32;16.58;;;3.38;;
44068;SDS011;29738;51.234;5.484;2022-08-21T08:42:07;10.75;;;3.00;;
44068;SDS011;29738;51.234;5.484;2022-08-21T08:44:41;15.55;;;4.25;;
44068;SDS011;29738;51.234;5.484;2022-08-21T08:47:09;12.07;;;3.15;;
44068;SDS011;29738;51.234;5.484;2022-08-21T08:49:40;15.80;;;3.88;;
44068;SDS011;29738;51.234;5.484;2022-08-21T08:52:48;10.05;;;3.20;;
44068;SDS011;29738;51.234;5.484;2022-08-21T08:57:36;13.57;;;3.53;;
44068;SDS011;29738;51.234;5.484;2022-08-21T09:00:06;11.40;;;3.22;;
44068;SDS011;29738;51.234;5.484;2022-08-21T09:02:37;14.25;;;3.28;;
44068;SDS011;29738;51.234;5.484;2022-08-21T09:05:04;7.68;;;2.50;;
44068;SDS011;29738;51.234;5.484;2022-08-21T09:07:40;15.57;;;5.53;;
44068;SDS011;29738;51.234;5.484;2022-08-21T09:10:45;13.35;;;3.10;;
44068;SDS011;29738;51.234;5.484;2022-08-21T09:18:52;8.27;;;3.03;;
44068;SDS011;29738;51.234;5.484;2022-08-21T09:27:07;8.93;;;2.63;;
44068;SDS011;29738;51.234;5.484;2022-08-21T09:29:42;12.32;;;2.80;;
44068;SDS011;29738;51.234;5.484;2022-08-21T09:32:20;11.90;;;2.75;;
44068;SDS011;29738;51.234;5.484;2022-08-21T09:40:23;8.88;;;2.67;;
44068;SDS011;29738;51.234;5.484;2022-08-21T09:42:59;11.70;;;3.03;;
44068;SDS011;29738;51.234;5.484;2022-08-21T09:45:27;13.35;;;3.00;;
44068;SDS011;29738;51.234;5.484;2022-08-21T09:47:54;8.68;;;2.67;;
44068;SDS011;29738;51.234;5.484;2022-08-21T09:50:21;13.48;;;2.72;;
44068;SDS011;29738;51.234;5.484;2022-08-21T09:52:52;7.10;;;2.70;;
44068;SDS011;29738;51.234;5.484;2022-08-21T09:55:30;11.90;;;3.45;;
44068;SDS011;29738;51.234;5.484;2022-08-21T09:58:29;10.63;;;2.97;;
44068;SDS011;29738;51.234;5.484;2022-08-21T10:00:59;12.10;;;2.75;;
44068;SDS011;29738;51.234;5.484;2022-08-21T10:03:27;8.80;;;2.83;;
44068;SDS011;29738;51.234;5.484;2022-08-21T10:05:58;9.52;;;3.28;;
44068;SDS011;29738;51.234;5.484;2022-08-21T10:08:31;13.27;;;2.92;;
44068;SDS011;29738;51.234;5.484;2022-08-21T10:11:03;9.05;;;2.95;;
44068;SDS011;29738;51.234;5.484;2022-08-21T10:16:17;10.02;;;2.97;;
44068;SDS011;29738;51.234;5.484;2022-08-21T10:30:49;6.93;;;2.22;;
44068;SDS011;29738;51.234;5.484;2022-08-21T10:36:13;8.65;;;3.33;;
44068;SDS011;29738;51.234;5.484;2022-08-21T10:41:17;9.40;;;2.92;;
44068;SDS011;29738;51.234;5.484;2022-08-21T10:50:03;12.05;;;3.35;;
44068;SDS011;29738;51.234;5.484;2022-08-21T10:53:00;11.05;;;2.65;;
44068;SDS011;29738;51.234;5.484;2022-08-21T10:58:40;10.93;;;3.05;;
44068;SDS011;29738;51.234;5.484;2022-08-21T11:01:14;9.00;;;2.90;;
44068;SDS011;29738;51.234;5.484;2022-08-21T11:03:53;14.13;;;2.72;;
44068;SDS011;29738;51.234;5.484;2022-08-21T11:06:30;9.07;;;3.05;;
44068;SDS011;29738;51.234;5.484;2022-08-21T11:09:04;11.32;;;3.03;;
44068;SDS011;29738;51.234;5.484;2022-08-21T11:11:44;10.32;;;2.83;;
44068;SDS011;29738;51.234;5.484;2022-08-21T11:14:15;12.05;;;2.83;;
44068;SDS011;29738;51.234;5.484;2022-08-21T11:16:44;10.32;;;2.70;;
44068;SDS011;29738;51.234;5.484;2022-08-21T11:19:16;7.97;;;2.77;;
44068;SDS011;29738;51.234;5.484;2022-08-21T11:22:01;8.77;;;2.92;;
44068;SDS011;29738;51.234;5.484;2022-08-21T11:24:57;11.45;;;3.33;;
44068;SDS011;29738;51.234;5.484;2022-08-21T11:30:01;12.20;;;2.90;;
44068;SDS011;29738;51.234;5.484;2022-08-21T11:43:37;9.90;;;3.05;;
44068;SDS011;29738;51.234;5.484;2022-08-21T11:45:57;9.82;;;2.85;;
44068;SDS011;29738;51.234;5.484;2022-08-21T11:48:40;12.70;;;3.25;;
44068;SDS011;29738;51.234;5.484;2022-08-21T11:51:22;11.23;;;2.58;;
44068;SDS011;29738;51.234;5.484;2022-08-21T11:54:16;10.57;;;2.83;;
44068;SDS011;29738;51.234;5.484;2022-08-21T11:56:54;14.30;;;3.03;;
44068;SDS011;29738;51.234;5.484;2022-08-21T11:59:35;9.55;;;2.85;;
44068;SDS011;29738;51.234;5.484;2022-08-21T12:02:19;7.80;;;2.60;;
44068;SDS011;29738;51.234;5.484;2022-08-21T12:04:51;7.10;;;2.65;;
44068;SDS011;29738;51.234;5.484;2022-08-21T12:07:35;8.13;;;2.50;;
44068;SDS011;29738;51.234;5.484;2022-08-21T12:10:07;8.20;;;2.60;;
44068;SDS011;29738;51.234;5.484;2022-08-21T12:12:40;8.10;;;2.80;;
44068;SDS011;29738;51.234;5.484;2022-08-21T12:15:13;10.88;;;2.90;;
44068;SDS011;29738;51.234;5.484;2022-08-21T12:17:50;11.65;;;3.13;;
44068;SDS011;29738;51.234;5.484;2022-08-21T12:23:15;6.28;;;2.72;;
44068;SDS011;29738;51.234;5.484;2022-08-21T12:25:46;7.97;;;2.42;;
44068;SDS011;29738;51.234;5.484;2022-08-21T12:28:25;8.65;;;2.70;;
44068;SDS011;29738;51.234;5.484;2022-08-21T12:30:52;10.73;;;2.80;;
44068;SDS011;29738;51.234;5.484;2022-08-21T12:33:23;8.15;;;2.63;;
44068;SDS011;29738;51.234;5.484;2022-08-21T12:35:52;9.90;;;3.63;;
44068;SDS011;29738;51.234;5.484;2022-08-21T12:38:34;8.95;;;3.50;;
44068;SDS011;29738;51.234;5.484;2022-08-21T12:41:41;7.03;;;2.95;;
44068;SDS011;29738;51.234;5.484;2022-08-21T12:44:10;13.05;;;3.13;;
44068;SDS011;29738;51.234;5.484;2022-08-21T12:46:42;9.50;;;2.77;;
44068;SDS011;29738;51.234;5.484;2022-08-21T12:49:52;8.55;;;2.75;;
44068;SDS011;29738;51.234;5.484;2022-08-21T12:52:38;7.78;;;2.65;;
44068;SDS011;29738;51.234;5.484;2022-08-21T12:55:12;9.50;;;3.25;;
44068;SDS011;29738;51.234;5.484;2022-08-21T12:57:41;9.50;;;2.75;;
44068;SDS011;29738;51.234;5.484;2022-08-21T13:00:08;5.97;;;2.22;;
44068;SDS011;29738;51.234;5.484;2022-08-21T13:02:39;7.38;;;2.33;;
44068;SDS011;29738;51.234;5.484;2022-08-21T13:05:12;9.40;;;2.70;;
44068;SDS011;29738;51.234;5.484;2022-08-21T13:07:44;8.30;;;3.13;;
44068;SDS011;29738;51.234;5.484;2022-08-21T13:10:16;11.70;;;2.50;;
44068;SDS011;29738;51.234;5.484;2022-08-21T13:12:59;5.88;;;2.50;;
44068;SDS011;29738;51.234;5.484;2022-08-21T13:15:29;7.55;;;2.50;;
44068;SDS011;29738;51.234;5.484;2022-08-21T13:17:57;7.47;;;3.28;;
44068;SDS011;29738;51.234;5.484;2022-08-21T13:22:56;10.15;;;2.83;;
44068;SDS011;29738;51.234;5.484;2022-08-21T13:25:25;7.00;;;2.30;;
44068;SDS011;29738;51.234;5.484;2022-08-21T13:27:59;8.98;;;2.38;;
44068;SDS011;29738;51.234;5.484;2022-08-21T13:30:31;6.45;;;2.20;;
44068;SDS011;29738;51.234;5.484;2022-08-21T13:32:59;7.07;;;2.22;;
44068;SDS011;29738;51.234;5.484;2022-08-21T13:35:30;9.50;;;2.65;;
44068;SDS011;29738;51.234;5.484;2022-08-21T13:38:01;7.22;;;2.53;;
44068;SDS011;29738;51.234;5.484;2022-08-21T13:40:30;7.65;;;2.20;;
44068;SDS011;29738;51.234;5.484;2022-08-21T13:43:04;5.97;;;2.08;;
44068;SDS011;29738;51.234;5.484;2022-08-21T13:45:43;11.07;;;2.70;;
44068;SDS011;29738;51.234;5.484;2022-08-21T13:48:12;9.02;;;2.35;;
44068;SDS011;29738;51.234;5.484;2022-08-21T13:50:39;8.18;;;2.40;;
44068;SDS011;29738;51.234;5.484;2022-08-21T13:53:18;10.18;;;2.60;;
44068;SDS011;29738;51.234;5.484;2022-08-21T13:55:52;6.47;;;2.35;;
44068;SDS011;29738;51.234;5.484;2022-08-21T13:58:28;11.05;;;2.50;;
44068;SDS011;29738;51.234;5.484;2022-08-21T14:00:56;9.13;;;2.75;;
44068;SDS011;29738;51.234;5.484;2022-08-21T14:03:42;10.93;;;2.60;;
44068;SDS011;29738;51.234;5.484;2022-08-21T14:06:11;6.38;;;2.20;;
44068;SDS011;29738;51.234;5.484;2022-08-21T14:08:40;7.70;;;2.92;;
44068;SDS011;29738;51.234;5.484;2022-08-21T14:11:09;8.00;;;2.47;;
44068;SDS011;29738;51.234;5.484;2022-08-21T14:16:13;6.15;;;2.90;;
44068;SDS011;29738;51.234;5.484;2022-08-21T14:18:45;8.07;;;2.40;;
44068;SDS011;29738;51.234;5.484;2022-08-21T14:21:22;7.68;;;2.22;;
44068;SDS011;29738;51.234;5.484;2022-08-21T14:24:10;5.43;;;2.15;;
44068;SDS011;29738;51.234;5.484;2022-08-21T14:26:56;6.80;;;2.72;;
44068;SDS011;29738;51.234;5.484;2022-08-21T14:29:28;5.90;;;2.13;;
44068;SDS011;29738;51.234;5.484;2022-08-21T14:32:11;6.68;;;2.22;;
44068;SDS011;29738;51.234;5.484;2022-08-21T14:34:46;12.13;;;2.85;;
44068;SDS011;29738;51.234;5.484;2022-08-21T14:37:11;7.90;;;2.13;;
44068;SDS011;29738;51.234;5.484;2022-08-21T14:39:37;5.82;;;2.22;;
44068;SDS011;29738;51.234;5.484;2022-08-21T14:42:03;6.65;;;2.50;;
44068;SDS011;29738;51.234;5.484;2022-08-21T14:44:29;6.35;;;2.50;;
44068;SDS011;29738;51.234;5.484;2022-08-21T14:46:57;11.50;;;2.80;;
44068;SDS011;29738;51.234;5.484;2022-08-21T14:49:24;11.00;;;2.85;;
44068;SDS011;29738;51.234;5.484;2022-08-21T14:51:52;11.60;;;2.85;;
44068;SDS011;29738;51.234;5.484;2022-08-21T14:54:22;7.22;;;2.30;;
44068;SDS011;29738;51.234;5.484;2022-08-21T14:56:55;7.00;;;3.10;;
44068;SDS011;29738;51.234;5.484;2022-08-21T14:59:23;7.53;;;2.80;;
44068;SDS011;29738;51.234;5.484;2022-08-21T15:01:50;7.40;;;2.28;;
44068;SDS011;29738;51.234;5.484;2022-08-21T15:04:17;8.23;;;2.50;;
44068;SDS011;29738;51.234;5.484;2022-08-21T15:06:43;15.90;;;2.67;;
44068;SDS011;29738;51.234;5.484;2022-08-21T15:09:09;6.53;;;1.85;;
44068;SDS011;29738;51.234;5.484;2022-08-21T15:11:35;6.55;;;2.45;;
44068;SDS011;29738;51.234;5.484;2022-08-21T15:14:02;7.07;;;2.50;;
44068;SDS011;29738;51.234;5.484;2022-08-21T15:16:32;12.45;;;2.75;;
44068;SDS011;29738;51.234;5.484;2022-08-21T15:18:59;7.03;;;2.10;;
44068;SDS011;29738;51.234;5.484;2022-08-21T15:21:25;7.07;;;2.10;;
44068;SDS011;29738;51.234;5.484;2022-08-21T15:23:50;6.63;;;2.15;;
44068;SDS011;29738;51.234;5.484;2022-08-21T15:26:16;9.88;;;2.20;;
44068;SDS011;29738;51.234;5.484;2022-08-21T15:28:47;9.15;;;3.05;;
44068;SDS011;29738;51.234;5.484;2022-08-21T15:31:13;8.10;;;2.30;;
44068;SDS011;29738;51.234;5.484;2022-08-21T15:33:39;14.23;;;3.25;;
44068;SDS011;29738;51.234;5.484;2022-08-21T15:36:05;8.02;;;2.70;;
44068;SDS011;29738;51.234;5.484;2022-08-21T15:38:31;9.30;;;2.80;;
44068;SDS011;29738;51.234;5.484;2022-08-21T15:40:57;6.47;;;2.90;;
44068;SDS011;29738;51.234;5.484;2022-08-21T15:43:29;7.53;;;2.78;;
44068;SDS011;29738;51.234;5.484;2022-08-21T15:46:00;12.48;;;2.95;;
44068;SDS011;29738;51.234;5.484;2022-08-21T15:48:27;8.15;;;2.67;;
44068;SDS011;29738;51.234;5.484;2022-08-21T15:50:53;6.15;;;2.40;;
44068;SDS011;29738;51.234;5.484;2022-08-21T15:53:18;9.48;;;2.88;;
44068;SDS011;29738;51.234;5.484;2022-08-21T15:55:44;7.22;;;2.33;;
44068;SDS011;29738;51.234;5.484;2022-08-21T15:58:14;7.53;;;2.78;;